Filia Ariea — PIET — position and weather

sailwx.info

Track history (hours):
 
Tides and Currents Weather Stations Pressure Air Temp Water Temp Dewpoint Dewpoint Depression Visibility Wind Speed Wind Dir Waves Ship Positions

Filia Ariea

Last reported at 2015-Mar-30 18:03 UTC. Time now 2015-Mar-30 23:00 UTC.
Position N 35°58' W 005°38'.

Length 90 m; draft 4.2 m.

Type: Cargo ship. MMSI: 244662000.

Date/timePositionNaut miles runAvg speedWind from/ knotsBaromVisibWave heightAir tempDewpointWater temp
2015-Mar-30 18:03N 35°58' W 005°38'5 9.1
2015-Mar-30 17:29N 35°59' W 005°32'7 8.0
2015-Mar-30 16:33N 36°01' W 005°23'19010.5
2015-Mar-29 22:25N 36°36' W 001°31'3210.7
2015-Mar-29 19:22N 36°46' W 000°52'910.9
2015-Mar-29 18:33N 36°48' W 000°42'1110.8
2015-Mar-29 17:33N 36°51' W 000°29'1110.8
2015-Mar-29 16:33N 36°54' W 000°16'1010.3
2015-Mar-29 15:33N 36°58' W 000°04'1310.2
2015-Mar-29 14:17N 37°02' E 000°12'1210.0
2015-Mar-29 13:06N 37°06' E 000°26'3610.0
2015-Mar-29 09:27N 37°18' E 001°09'7410.4
2015-Mar-29 02:20N 37°41' E 002°38'283 8.6
2015-Mar-27 17:32N 39°08' E 008°22'1 0.1
2015-Mar-27 06:29N 39°09' E 008°23'15 6.9
2015-Mar-27 04:17N 38°54' E 008°26'6 7.8
2015-Mar-27 03:28N 38°51' E 008°34'7 7.8
2015-Mar-27 02:31N 38°49' E 008°43'1010.2
2015-Mar-27 01:33N 38°51' E 008°56'1111.0
2015-Mar-27 00:33N 38°54' E 009°09'1010.4
2015-Mar-26 23:33N 38°57' E 009°22'2610.5
2015-Mar-26 21:06N 39°05' E 009°53'17611.8
2015-Mar-26 06:09N 40°12' E 013°24'16 9.7
2015-Mar-26 04:27N 40°19' E 013°44'9 9.8
2015-Mar-26 03:33N 40°23' E 013°54'10 9.9
2015-Mar-26 02:33N 40°26' E 014°06'10 9.7
2015-Mar-26 01:33N 40°30' E 014°18'10 9.6
2015-Mar-26 00:30N 40°34' E 014°31'3 0.1
2015-Mar-24 04:33N 40°35' E 014°35'11 9.9
2015-Mar-24 03:29N 40°31' E 014°21'10 9.7
2015-Mar-24 02:28N 40°27' E 014°10'219 9.6
2015-Mar-23 03:32N 39°03' E 009°46'19 9.4
2015-Mar-23 01:32N 38°57' E 009°23'9 9.5
2015-Mar-23 00:33N 38°54' E 009°12'10 9.3
2015-Mar-22 23:30N 38°52' E 008°60'9 9.2
2015-Mar-22 22:31N 38°49' E 008°49'20 9.1
2015-Mar-22 20:18N 38°44' E 008°23'274 9.5
2015-Mar-21 15:19N 37°31' E 002°48'  
Track history (hours):
 
Tides and Currents Weather Stations Pressure Air Temp Water Temp Dewpoint Dewpoint Depression Visibility Wind Speed Wind Dir Waves Ship Positions

Filia Ariea

Last reported at 2015-Mar-30 18:03 UTC. Time now 2015-Mar-30 23:00 UTC.
Position N 35°58' W 005°38'.

Length 90 m; draft 4.2 m.

Type: Cargo ship. MMSI: 244662000.

Date/timePositionNaut miles runAvg speedWind from/ knotsBaromVisibWave heightAir tempDewpointWater temp
2015-Mar-30 18:03N 35°58' W 005°38'5 9.1
2015-Mar-30 17:29N 35°59' W 005°32'7 8.0
2015-Mar-30 16:33N 36°01' W 005°23'19010.5
2015-Mar-29 22:25N 36°36' W 001°31'3210.7
2015-Mar-29 19:22N 36°46' W 000°52'910.9
2015-Mar-29 18:33N 36°48' W 000°42'1110.8
2015-Mar-29 17:33N 36°51' W 000°29'1110.8
2015-Mar-29 16:33N 36°54' W 000°16'1010.3
2015-Mar-29 15:33N 36°58' W 000°04'1310.2
2015-Mar-29 14:17N 37°02' E 000°12'1210.0
2015-Mar-29 13:06N 37°06' E 000°26'3610.0
2015-Mar-29 09:27N 37°18' E 001°09'7410.4
2015-Mar-29 02:20N 37°41' E 002°38'283 8.6
2015-Mar-27 17:32N 39°08' E 008°22'1 0.1
2015-Mar-27 06:29N 39°09' E 008°23'15 6.9
2015-Mar-27 04:17N 38°54' E 008°26'6 7.8
2015-Mar-27 03:28N 38°51' E 008°34'7 7.8
2015-Mar-27 02:31N 38°49' E 008°43'1010.2
2015-Mar-27 01:33N 38°51' E 008°56'1111.0
2015-Mar-27 00:33N 38°54' E 009°09'1010.4
2015-Mar-26 23:33N 38°57' E 009°22'2610.5
2015-Mar-26 21:06N 39°05' E 009°53'17611.8
2015-Mar-26 06:09N 40°12' E 013°24'16 9.7
2015-Mar-26 04:27N 40°19' E 013°44'9 9.8
2015-Mar-26 03:33N 40°23' E 013°54'10 9.9
2015-Mar-26 02:33N 40°26' E 014°06'10 9.7
2015-Mar-26 01:33N 40°30' E 014°18'10 9.6
2015-Mar-26 00:30N 40°34' E 014°31'3 0.1
2015-Mar-24 04:33N 40°35' E 014°35'11 9.9
2015-Mar-24 03:29N 40°31' E 014°21'10 9.7
2015-Mar-24 02:28N 40°27' E 014°10'219 9.6
2015-Mar-23 03:32N 39°03' E 009°46'19 9.4
2015-Mar-23 01:32N 38°57' E 009°23'9 9.5
2015-Mar-23 00:33N 38°54' E 009°12'10 9.3
2015-Mar-22 23:30N 38°52' E 008°60'9 9.2
2015-Mar-22 22:31N 38°49' E 008°49'20 9.1
2015-Mar-22 20:18N 38°44' E 008°23'274 9.5
2015-Mar-21 15:19N 37°31' E 002°48'  

Dump ship's entire track history